MSC weather

Falcon Field
Mesa, Arizona, United States

Public forecast

Using degrees Fahrenheit for public forecast. Weather courtesy of forecast.io.

METAR (pilot weather report)

Retrieved 2019/06/20 11:54 UTC (47 minutes ago):

KFFZ 201154Z 11008KT 10SM CLR 24/M01 A2985 RMK AO2 SLP084 T02441011 10300 20239 53006

TAF (pilot weather forecast)

Closest forecast is Phoenix-Mesa-Gateway Airport, 9.9 nm (18.3 km) SSE. Retrieved 2019/06/20 12:22 UTC (19 minutes ago):

TAF KIWA 201120Z 2012/2112 14007KT P6SM SKC FM201600 18006KT P6SM SKC FM201900 25011G19KT P6SM SKC FM210400 23010KT P6SM SKC FM210700 12006KT P6SM SKC